createdAt,value
2023-03-08T00:00:14.210Z,8.53
2023-03-08T00:02:38.366Z,9.10
2023-03-08T00:05:01.956Z,8.30
2023-03-08T00:07:25.765Z,13.97
2023-03-08T00:09:49.315Z,11.83
2023-03-08T00:12:12.961Z,7.40
2023-03-08T00:14:37.323Z,7.30
2023-03-08T00:17:02.566Z,14.03
2023-03-08T00:19:26.143Z,9.30
2023-03-08T00:21:49.745Z,14.53
2023-03-08T00:24:16.798Z,8.03
2023-03-08T00:26:40.433Z,9.27
2023-03-08T00:29:04.188Z,8.03
2023-03-08T00:31:27.978Z,10.70
2023-03-08T00:33:55.702Z,12.40
2023-03-08T00:36:21.057Z,20.93
2023-03-08T00:38:45.280Z,11.73
2023-03-08T00:41:11.474Z,14.13
2023-03-08T00:43:35.806Z,14.60
2023-03-08T00:46:02.609Z,9.53
2023-03-08T00:48:26.648Z,14.70
2023-03-08T00:50:51.697Z,10.17
2023-03-08T00:53:15.620Z,8.93
2023-03-08T00:55:39.451Z,13.77
2023-03-08T00:58:03.161Z,14.70
2023-03-08T01:00:27.231Z,12.60
2023-03-08T01:02:51.434Z,16.67
2023-03-08T01:05:15.260Z,14.83
2023-03-08T01:07:41.529Z,10.20
2023-03-08T01:10:05.603Z,12.40
2023-03-08T01:12:29.127Z,14.43
2023-03-08T01:14:52.795Z,14.43
2023-03-08T01:17:16.292Z,10.30
2023-03-08T01:19:39.845Z,17.07
2023-03-08T01:22:03.411Z,13.20
2023-03-08T01:24:28.392Z,14.17
2023-03-08T01:26:55.822Z,14.30
2023-03-08T01:29:19.397Z,14.27
2023-03-08T01:31:42.927Z,16.60
2023-03-08T01:34:06.511Z,11.67
2023-03-08T01:36:30.459Z,15.27
2023-03-08T01:38:54.208Z,13.80
2023-03-08T01:41:22.285Z,10.30
2023-03-08T01:43:47.412Z,14.90
2023-03-08T01:46:25.172Z,16.03
2023-03-08T01:48:57.948Z,16.67
2023-03-08T01:51:29.960Z,14.50
2023-03-08T01:53:55.311Z,15.30
2023-03-08T01:56:21.196Z,15.40
2023-03-08T01:58:49.888Z,19.40
2023-03-08T02:01:13.584Z,15.10
2023-03-08T02:03:37.386Z,14.10
2023-03-08T02:06:01.080Z,13.43
2023-03-08T02:08:25.496Z,14.17
2023-03-08T02:10:50.519Z,15.27
2023-03-08T02:13:15.594Z,13.90
2023-03-08T02:15:40.834Z,18.90
2023-03-08T02:18:04.537Z,15.87
2023-03-08T02:20:32.864Z,18.40
2023-03-08T02:23:13.131Z,18.30
2023-03-08T02:25:38.124Z,18.03
2023-03-08T02:28:02.592Z,16.87
2023-03-08T02:30:31.708Z,20.30
2023-03-08T02:32:55.215Z,22.17
2023-03-08T02:35:19.363Z,16.93
2023-03-08T02:37:42.973Z,14.03
2023-03-08T02:40:11.347Z,19.87
2023-03-08T02:42:35.276Z,22.07
2023-03-08T02:44:58.873Z,17.07
2023-03-08T02:47:22.470Z,19.67
2023-03-08T02:49:46.205Z,15.07
2023-03-08T02:52:09.860Z,20.57
2023-03-08T02:54:33.404Z,18.27
2023-03-08T02:56:59.369Z,17.80
2023-03-08T02:59:24.024Z,24.87
2023-03-08T03:01:48.993Z,22.63
2023-03-08T03:04:12.553Z,18.83
2023-03-08T03:06:36.126Z,23.60
2023-03-08T03:08:59.734Z,19.13
2023-03-08T03:11:24.588Z,20.80
2023-03-08T03:13:56.091Z,22.07
2023-03-08T03:16:21.466Z,19.40
2023-03-08T03:18:45.142Z,24.00
2023-03-08T03:21:11.875Z,21.23
2023-03-08T03:23:35.415Z,18.07
2023-03-08T03:26:05.761Z,20.03
2023-03-08T03:28:30.040Z,19.37
2023-03-08T03:30:57.060Z,18.23
2023-03-08T03:33:20.747Z,18.37
2023-03-08T03:35:44.760Z,16.80
2023-03-08T03:38:08.405Z,27.20
2023-03-08T03:40:32.760Z,19.43
2023-03-08T03:42:58.890Z,19.87
2023-03-08T03:45:22.509Z,18.40
2023-03-08T03:47:48.265Z,18.73
2023-03-08T03:50:13.436Z,20.80
2023-03-08T03:52:49.914Z,25.47
2023-03-08T03:55:13.915Z,21.80
2023-03-08T03:57:37.536Z,22.10
2023-03-08T04:00:01.226Z,22.67
2023-03-08T04:02:25.138Z,21.73
2023-03-08T04:04:55.189Z,21.70
2023-03-08T04:07:22.834Z,17.83
2023-03-08T04:09:52.968Z,21.37
2023-03-08T04:12:16.634Z,19.80
2023-03-08T04:14:41.312Z,19.93
2023-03-08T04:17:07.638Z,21.33
2023-03-08T04:19:37.924Z,19.80
2023-03-08T04:22:04.405Z,21.37
2023-03-08T04:24:34.940Z,22.10
2023-03-08T04:27:02.534Z,19.73
2023-03-08T04:29:26.846Z,19.83
2023-03-08T04:31:50.433Z,19.60
2023-03-08T04:34:16.344Z,18.50
2023-03-08T04:36:43.529Z,18.73
2023-03-08T04:39:08.499Z,22.67
2023-03-08T04:41:32.608Z,22.10
2023-03-08T04:44:04.120Z,18.93
2023-03-08T04:46:33.156Z,24.83
2023-03-08T04:48:57.279Z,22.37
2023-03-08T04:51:26.731Z,19.03
2023-03-08T04:53:52.835Z,26.50
2023-03-08T04:56:19.151Z,25.77
2023-03-08T04:58:44.658Z,24.83
2023-03-08T05:01:14.208Z,24.17
2023-03-08T05:03:39.167Z,22.93
2023-03-08T05:06:02.703Z,22.50
2023-03-08T05:08:26.363Z,20.83
2023-03-08T05:10:50.902Z,26.13
2023-03-08T05:13:15.922Z,22.33
2023-03-08T05:15:40.258Z,25.83
2023-03-08T05:18:03.875Z,24.30
2023-03-08T05:20:27.880Z,26.77
2023-03-08T05:22:58.984Z,24.93
2023-03-08T05:25:31.593Z,31.83
2023-03-08T05:27:56.161Z,22.23
2023-03-08T05:30:22.063Z,25.17
2023-03-08T05:32:47.314Z,22.43
2023-03-08T05:35:11.265Z,29.20
2023-03-08T05:37:35.428Z,23.30
2023-03-08T05:40:00.534Z,28.80
2023-03-08T05:42:24.163Z,29.77
2023-03-08T05:44:47.916Z,27.03
2023-03-08T05:47:17.498Z,25.97
2023-03-08T05:49:41.466Z,26.97
2023-03-08T05:52:06.653Z,28.00
2023-03-08T05:54:31.662Z,29.40
2023-03-08T05:56:59.555Z,27.07
2023-03-08T05:59:23.704Z,25.77
2023-03-08T06:01:47.813Z,30.00
2023-03-08T06:04:31.489Z,26.57
2023-03-08T06:06:55.686Z,27.77
2023-03-08T06:09:23.780Z,25.20
2023-03-08T06:11:48.179Z,26.87
2023-03-08T06:14:13.231Z,30.37
2023-03-08T06:16:37.683Z,26.80
2023-03-08T06:19:03.365Z,26.17
2023-03-08T06:21:30.021Z,27.40
2023-03-08T06:23:57.396Z,26.33
2023-03-08T06:26:21.779Z,31.00
2023-03-08T06:28:45.722Z,24.83
2023-03-08T06:31:13.256Z,26.87
2023-03-08T06:33:37.224Z,28.37
2023-03-08T06:36:04.148Z,25.17
2023-03-08T06:38:31.784Z,23.47
2023-03-08T06:40:57.111Z,25.60
2023-03-08T06:43:21.982Z,24.43
2023-03-08T06:45:45.624Z,23.63
2023-03-08T06:48:09.551Z,22.53
2023-03-08T06:50:34.072Z,25.00
2023-03-08T06:52:57.639Z,21.23
2023-03-08T06:55:38.165Z,20.37
2023-03-08T06:58:01.786Z,17.87
2023-03-08T07:00:25.687Z,20.03
2023-03-08T07:02:49.912Z,15.40
2023-03-08T07:05:13.417Z,13.77
2023-03-08T07:07:38.665Z,16.27
2023-03-08T07:10:02.328Z,15.93
2023-03-08T07:12:27.352Z,15.70
2023-03-08T07:14:53.326Z,20.27
2023-03-08T07:17:16.890Z,13.93
2023-03-08T07:19:40.608Z,17.13
2023-03-08T07:22:04.164Z,17.80
2023-03-08T07:24:27.757Z,15.87
2023-03-08T07:26:52.229Z,14.63
2023-03-08T07:29:17.650Z,17.23
2023-03-08T07:31:41.344Z,16.97
2023-03-08T07:34:04.980Z,15.43
2023-03-08T07:36:28.555Z,17.73
2023-03-08T07:38:52.133Z,18.07
2023-03-08T07:41:15.763Z,15.93
2023-03-08T07:43:39.384Z,15.40
2023-03-08T07:46:18.081Z,17.20
2023-03-08T07:48:41.726Z,17.60
2023-03-08T07:51:08.834Z,16.13
2023-03-08T07:53:32.911Z,15.83
2023-03-08T07:55:58.834Z,16.07
2023-03-08T07:58:22.446Z,14.07
2023-03-08T08:00:46.251Z,15.07
2023-03-08T08:03:11.250Z,15.07
2023-03-08T08:05:37.172Z,14.50
2023-03-08T08:08:01.003Z,13.40
2023-03-08T08:10:24.525Z,15.40
2023-03-08T08:12:48.129Z,15.87
2023-03-08T08:15:12.967Z,16.33
2023-03-08T08:17:36.550Z,14.30
2023-03-08T08:20:01.446Z,15.93
2023-03-08T08:22:25.191Z,16.40
2023-03-08T08:24:48.763Z,17.67
2023-03-08T08:27:14.823Z,16.43
2023-03-08T08:29:39.336Z,15.83
2023-03-08T08:32:05.210Z,17.50
2023-03-08T08:34:28.755Z,14.33
2023-03-08T08:36:53.745Z,15.17
2023-03-08T08:39:17.317Z,12.93
2023-03-08T08:41:40.950Z,13.40
2023-03-08T08:44:04.940Z,13.93
2023-03-08T08:46:29.620Z,13.87
2023-03-08T08:48:53.133Z,13.53
2023-03-08T08:51:16.775Z,13.73
2023-03-08T08:53:41.835Z,13.20
2023-03-08T08:56:26.102Z,12.10
2023-03-08T08:58:52.471Z,11.60
2023-03-08T09:01:18.108Z,13.33
2023-03-08T09:03:41.748Z,11.07
2023-03-08T09:06:06.017Z,12.13
2023-03-08T09:08:29.890Z,11.70
2023-03-08T09:10:54.835Z,10.67
2023-03-08T09:13:18.471Z,8.90
2023-03-08T09:15:42.040Z,8.90
2023-03-08T09:18:05.817Z,10.30
2023-03-08T09:20:29.524Z,8.30
2023-03-08T09:22:53.211Z,8.57
2023-03-08T09:25:19.504Z,8.65
2023-03-08T09:27:44.578Z,10.18
2023-03-08T09:30:12.695Z,10.18
2023-03-08T09:32:37.009Z,7.07
2023-03-08T09:35:00.625Z,8.45
2023-03-08T09:37:24.226Z,8.93
2023-03-08T09:39:51.521Z,6.72
2023-03-08T09:42:24.139Z,5.22
2023-03-08T09:45:13.395Z,7.13
2023-03-08T09:47:46.582Z,6.32
2023-03-08T09:50:33.870Z,7.97
2023-03-08T09:53:01.486Z,7.18
2023-03-08T09:55:30.516Z,6.78
2023-03-08T09:57:57.438Z,8.52
2023-03-08T10:00:28.363Z,6.95
2023-03-08T10:03:07.970Z,6.40
2023-03-08T10:05:41.158Z,6.88
2023-03-08T10:08:14.262Z,6.10
2023-03-08T10:10:50.048Z,10.07
2023-03-08T10:13:32.090Z,6.28
2023-03-08T10:16:07.187Z,9.05
2023-03-08T10:18:37.195Z,9.07
2023-03-08T10:21:03.024Z,7.95
2023-03-08T10:23:30.096Z,4.50
2023-03-08T10:25:53.934Z,5.43
2023-03-08T10:28:21.682Z,6.50
2023-03-08T10:30:49.094Z,5.28
2023-03-08T10:33:19.425Z,6.32
2023-03-08T10:35:58.320Z,4.95
2023-03-08T10:38:21.904Z,7.47
2023-03-08T10:40:45.579Z,5.07
2023-03-08T10:43:18.322Z,7.13
2023-03-08T10:45:41.988Z,5.10
2023-03-08T10:48:07.491Z,6.82
2023-03-08T10:50:36.601Z,5.72
2023-03-08T10:53:12.136Z,8.40
2023-03-08T10:55:44.907Z,6.10
2023-03-08T10:58:33.590Z,7.07
2023-03-08T11:00:59.789Z,4.43
2023-03-08T11:03:25.535Z,2.75
2023-03-08T11:05:59.986Z,5.95
2023-03-08T11:08:28.168Z,5.10
2023-03-08T11:11:12.360Z,6.70
2023-03-08T11:13:39.200Z,7.63
2023-03-08T11:16:27.299Z,8.13
2023-03-08T11:19:04.247Z,5.93
2023-03-08T11:21:41.860Z,5.00
2023-03-08T11:24:23.514Z,5.70
2023-03-08T11:27:03.641Z,6.15
2023-03-08T11:29:42.409Z,4.70
2023-03-08T11:32:22.194Z,5.30
2023-03-08T11:35:11.256Z,4.45
2023-03-08T11:37:44.190Z,4.63
2023-03-08T11:40:22.732Z,4.80
2023-03-08T11:42:56.507Z,5.13
2023-03-08T11:45:27.656Z,6.82
2023-03-08T11:48:25.353Z,6.18
2023-03-08T11:50:54.891Z,5.03
2023-03-08T11:53:35.324Z,6.75
2023-03-08T11:56:38.044Z,5.45
2023-03-08T11:59:08.283Z,6.78
2023-03-08T12:01:39.942Z,7.45
2023-03-08T12:04:11.301Z,5.63
2023-03-08T12:06:40.853Z,7.95
2023-03-08T12:09:14.313Z,7.22
2023-03-08T12:11:43.358Z,6.55
2023-03-08T12:14:17.690Z,7.57
2023-03-08T12:16:49.668Z,6.60
2023-03-08T12:19:25.808Z,5.78
2023-03-08T12:21:58.777Z,6.10
2023-03-08T12:24:39.720Z,4.65
2023-03-08T12:27:07.575Z,6.63
2023-03-08T12:29:36.431Z,5.78
2023-03-08T12:32:01.988Z,7.72
2023-03-08T12:34:31.290Z,5.43
2023-03-08T12:36:55.471Z,4.55
2023-03-08T12:39:32.588Z,6.55
2023-03-08T12:42:15.990Z,7.07
2023-03-08T12:44:40.660Z,5.13
2023-03-08T12:47:20.387Z,5.60
2023-03-08T12:49:47.411Z,7.57
2023-03-08T12:52:30.569Z,5.55
2023-03-08T12:55:05.467Z,5.47
2023-03-08T12:57:32.934Z,5.40
2023-03-08T12:59:59.855Z,8.02
2023-03-08T13:02:30.713Z,7.63
2023-03-08T13:05:15.639Z,6.40
2023-03-08T13:07:50.991Z,6.75
2023-03-08T13:10:24.486Z,5.68
2023-03-08T13:13:36.761Z,6.43
2023-03-08T13:16:21.405Z,6.03
2023-03-08T13:18:47.958Z,5.28
2023-03-08T13:21:27.826Z,9.55
2023-03-08T13:23:57.540Z,5.93
2023-03-08T13:26:50.238Z,5.47
2023-03-08T13:29:17.515Z,5.50
2023-03-08T13:31:42.084Z,6.70
2023-03-08T13:34:05.705Z,6.78
2023-03-08T13:36:31.497Z,6.57
2023-03-08T13:39:04.321Z,5.15
2023-03-08T13:41:41.406Z,5.15
2023-03-08T13:44:06.749Z,7.60
2023-03-08T13:46:31.140Z,7.38
2023-03-08T13:48:54.914Z,6.63
2023-03-08T13:51:19.298Z,7.35
2023-03-08T13:53:45.061Z,7.50
2023-03-08T13:56:09.733Z,8.18
2023-03-08T13:58:38.066Z,7.93
2023-03-08T14:01:04.518Z,9.70
2023-03-08T14:03:31.316Z,7.40
2023-03-08T14:05:54.964Z,6.85
2023-03-08T14:08:24.387Z,9.40
2023-03-08T14:10:50.693Z,7.07
2023-03-08T14:13:21.042Z,8.30
2023-03-08T14:15:51.694Z,9.32
2023-03-08T14:18:23.816Z,9.25
2023-03-08T14:20:47.666Z,8.70
2023-03-08T14:23:24.853Z,9.60
2023-03-08T14:25:58.351Z,10.50
2023-03-08T14:28:43.068Z,10.83
2023-03-08T14:31:30.098Z,9.13
2023-03-08T14:34:02.365Z,11.25
2023-03-08T14:36:26.497Z,12.87
2023-03-08T14:38:51.469Z,11.53
2023-03-08T14:41:16.010Z,12.43
2023-03-08T14:43:40.011Z,11.67
2023-03-08T14:46:06.918Z,10.73
2023-03-08T14:48:33.733Z,11.93
2023-03-08T14:51:00.325Z,11.77
2023-03-08T14:53:34.519Z,13.10
2023-03-08T14:55:58.986Z,11.73
2023-03-08T14:58:27.776Z,14.13
2023-03-08T15:00:52.082Z,12.37
2023-03-08T15:03:15.621Z,15.83
2023-03-08T15:05:40.924Z,13.97
2023-03-08T15:08:04.559Z,13.83
2023-03-08T15:10:33.245Z,16.47
2023-03-08T15:12:57.336Z,14.43
2023-03-08T15:15:21.199Z,17.20
2023-03-08T15:17:44.991Z,16.67
2023-03-08T15:20:11.011Z,16.00
2023-03-08T15:22:41.488Z,14.67
2023-03-08T15:25:13.441Z,13.97
2023-03-08T15:27:37.031Z,19.57
2023-03-08T15:30:00.553Z,17.27
2023-03-08T15:32:24.162Z,19.00
2023-03-08T15:34:47.824Z,23.10
2023-03-08T15:37:15.642Z,22.03
2023-03-08T15:39:40.562Z,14.20
2023-03-08T15:42:04.255Z,12.97
2023-03-08T15:44:27.853Z,14.53
2023-03-08T15:46:52.851Z,21.03
2023-03-08T15:49:16.620Z,23.77
2023-03-08T15:51:40.383Z,30.77
2023-03-08T15:54:04.873Z,27.50
2023-03-08T15:56:29.845Z,20.73
2023-03-08T15:58:53.503Z,22.67
2023-03-08T16:01:17.094Z,20.17
2023-03-08T16:03:40.896Z,20.03
2023-03-08T16:06:10.138Z,19.03
2023-03-08T16:08:35.181Z,18.87
2023-03-08T16:11:03.846Z,18.27
2023-03-08T16:13:28.920Z,17.50
2023-03-08T16:15:52.553Z,19.93
2023-03-08T16:18:16.120Z,19.53
2023-03-08T16:20:41.592Z,18.93
2023-03-08T16:23:05.113Z,21.83
2023-03-08T16:25:28.900Z,21.63
2023-03-08T16:27:53.162Z,18.30
2023-03-08T16:30:18.520Z,24.17
2023-03-08T16:32:42.297Z,32.83
2023-03-08T16:35:06.975Z,23.97
2023-03-08T16:37:30.602Z,24.37
2023-03-08T16:39:57.493Z,22.23
2023-03-08T16:42:22.033Z,23.23
2023-03-08T16:44:52.012Z,19.93
2023-03-08T16:47:17.144Z,23.07
2023-03-08T16:49:40.732Z,25.73
2023-03-08T16:52:05.550Z,31.07
2023-03-08T16:54:29.184Z,27.70
2023-03-08T16:56:52.729Z,26.10
2023-03-08T16:59:17.498Z,21.70
2023-03-08T17:01:42.376Z,21.80
2023-03-08T17:04:07.513Z,20.07
2023-03-08T17:06:33.384Z,22.30
2023-03-08T17:08:57.952Z,20.77
2023-03-08T17:11:23.670Z,23.17
2023-03-08T17:13:51.143Z,16.40
2023-03-08T17:16:14.934Z,20.00
2023-03-08T17:18:38.483Z,18.70
2023-03-08T17:21:03.406Z,21.23
2023-03-08T17:23:26.957Z,18.57
2023-03-08T17:25:51.636Z,20.00
2023-03-08T17:28:15.912Z,21.83
2023-03-08T17:30:41.373Z,19.67
2023-03-08T17:33:05.087Z,20.43
2023-03-08T17:35:28.955Z,22.40
2023-03-08T17:37:54.216Z,23.67
2023-03-08T17:40:18.598Z,22.10
2023-03-08T17:42:42.306Z,29.30
2023-03-08T17:45:07.450Z,21.10
2023-03-08T17:47:30.995Z,27.40
2023-03-08T17:49:54.569Z,28.43
2023-03-08T17:52:18.183Z,37.20
2023-03-08T17:54:43.185Z,34.33
2023-03-08T17:57:06.846Z,31.73
2023-03-08T17:59:30.445Z,41.13
2023-03-08T18:01:53.996Z,31.97
2023-03-08T18:04:19.027Z,37.23
2023-03-08T18:06:44.139Z,46.83
2023-03-08T18:09:10.756Z,48.13
2023-03-08T18:11:37.728Z,68.53
2023-03-08T18:14:01.418Z,39.70
2023-03-08T18:16:26.176Z,40.67
2023-03-08T18:18:50.849Z,36.20
2023-03-08T18:21:14.543Z,31.43
2023-03-08T18:23:38.090Z,35.63
2023-03-08T18:26:02.023Z,31.83
2023-03-08T18:28:27.067Z,35.47
2023-03-08T18:30:50.583Z,36.10
2023-03-08T18:33:14.229Z,35.30
2023-03-08T18:35:37.818Z,36.27
2023-03-08T18:38:02.281Z,42.93
2023-03-08T18:40:27.702Z,35.40
2023-03-08T18:42:51.342Z,36.60
2023-03-08T18:45:18.280Z,33.87
2023-03-08T18:47:42.247Z,35.93
2023-03-08T18:50:08.255Z,30.80
2023-03-08T18:52:32.083Z,30.27
2023-03-08T18:54:55.734Z,29.43
2023-03-08T18:57:19.284Z,28.07
2023-03-08T18:59:42.865Z,28.73
2023-03-08T19:02:11.135Z,28.83
2023-03-08T19:04:39.948Z,26.30
2023-03-08T19:07:03.536Z,26.23
2023-03-08T19:09:27.109Z,27.37
2023-03-08T19:11:50.653Z,24.23
2023-03-08T19:14:14.798Z,24.37
2023-03-08T19:16:38.453Z,25.73
2023-03-08T19:19:06.338Z,32.23
2023-03-08T19:21:32.200Z,25.23
2023-03-08T19:23:57.382Z,25.03
2023-03-08T19:26:41.216Z,27.30
2023-03-08T19:29:08.078Z,27.77
2023-03-08T19:31:31.919Z,33.43
2023-03-08T19:33:56.138Z,32.77
2023-03-08T19:36:21.387Z,31.40
2023-03-08T19:38:45.095Z,34.23
2023-03-08T19:41:10.536Z,32.03
2023-03-08T19:43:34.292Z,30.73
2023-03-08T19:46:00.370Z,30.23
2023-03-08T19:48:24.171Z,29.83
2023-03-08T19:50:48.111Z,32.47
2023-03-08T19:53:13.084Z,30.03
2023-03-08T19:55:36.626Z,32.47
2023-03-08T19:58:00.290Z,33.53
2023-03-08T20:00:24.533Z,39.73
2023-03-08T20:02:48.446Z,33.57
2023-03-08T20:05:12.136Z,39.87
2023-03-08T20:07:35.916Z,39.50
2023-03-08T20:10:15.187Z,35.57
2023-03-08T20:12:39.773Z,31.77
2023-03-08T20:15:03.481Z,36.83
2023-03-08T20:17:28.360Z,35.50
2023-03-08T20:19:52.149Z,35.13
2023-03-08T20:22:15.830Z,35.67
2023-03-08T20:24:39.513Z,32.23
2023-03-08T20:27:05.302Z,32.83
2023-03-08T20:29:28.863Z,33.60
2023-03-08T20:31:52.557Z,34.53
2023-03-08T20:34:16.271Z,35.30
2023-03-08T20:36:39.926Z,33.80
2023-03-08T20:39:03.566Z,33.67
2023-03-08T20:41:28.249Z,31.87
2023-03-08T20:43:55.984Z,35.13
2023-03-08T20:46:23.120Z,30.93
2023-03-08T20:48:47.684Z,33.00
2023-03-08T20:51:15.339Z,34.97
2023-03-08T20:53:39.855Z,36.57
2023-03-08T20:56:07.318Z,37.97
2023-03-08T20:58:31.052Z,34.93
2023-03-08T21:00:56.102Z,32.90
2023-03-08T21:03:19.745Z,39.83
2023-03-08T21:05:43.642Z,38.10
2023-03-08T21:08:07.942Z,40.53
2023-03-08T21:10:32.933Z,41.00
2023-03-08T21:12:56.546Z,42.13
2023-03-08T21:15:20.353Z,37.37
2023-03-08T21:17:45.231Z,38.57
2023-03-08T21:20:11.343Z,40.57
2023-03-08T21:22:34.838Z,37.70
2023-03-08T21:24:58.832Z,40.43
2023-03-08T21:27:22.368Z,40.67
2023-03-08T21:29:46.043Z,36.87
2023-03-08T21:32:09.714Z,30.47
2023-03-08T21:34:34.690Z,31.47
2023-03-08T21:36:58.343Z,34.50
2023-03-08T21:39:22.712Z,33.63
2023-03-08T21:41:50.537Z,29.50
2023-03-08T21:44:16.341Z,32.57
2023-03-08T21:46:41.563Z,33.67
2023-03-08T21:49:05.722Z,31.97
2023-03-08T21:51:30.737Z,32.33
2023-03-08T21:53:54.423Z,27.80
2023-03-08T21:56:19.703Z,26.80
2023-03-08T21:58:43.758Z,28.93
2023-03-08T22:01:08.592Z,30.57
2023-03-08T22:03:33.466Z,27.40
2023-03-08T22:05:57.080Z,30.97
2023-03-08T22:08:22.691Z,30.97
2023-03-08T22:10:46.204Z,28.60
2023-03-08T22:13:09.857Z,27.60
2023-03-08T22:15:33.377Z,30.90
2023-03-08T22:17:57.238Z,27.93
2023-03-08T22:20:21.516Z,30.03
2023-03-08T22:22:45.645Z,31.27
2023-03-08T22:25:11.555Z,30.67
2023-03-08T22:27:35.633Z,31.63
2023-03-08T22:29:59.688Z,33.43
2023-03-08T22:32:23.570Z,29.20
2023-03-08T22:34:47.213Z,27.50
2023-03-08T22:37:10.791Z,29.13
2023-03-08T22:39:34.366Z,29.07
2023-03-08T22:41:59.718Z,29.43
2023-03-08T22:44:23.343Z,26.00
2023-03-08T22:46:46.963Z,26.73
2023-03-08T22:49:12.593Z,27.60
2023-03-08T22:51:36.500Z,27.20
2023-03-08T22:54:03.942Z,26.60
2023-03-08T22:56:30.706Z,29.37
2023-03-08T22:58:56.000Z,24.93
2023-03-08T23:01:22.603Z,28.73
2023-03-08T23:03:49.229Z,25.93
2023-03-08T23:06:12.972Z,26.27
2023-03-08T23:08:36.547Z,27.17
2023-03-08T23:11:00.196Z,26.80
2023-03-08T23:13:33.487Z,25.00
2023-03-08T23:15:59.431Z,25.87
2023-03-08T23:18:22.988Z,26.83
2023-03-08T23:20:46.633Z,25.87
2023-03-08T23:23:10.174Z,24.77
2023-03-08T23:25:34.017Z,25.13
2023-03-08T23:27:57.611Z,25.33
2023-03-08T23:30:21.476Z,24.90
2023-03-08T23:32:46.466Z,26.90
2023-03-08T23:35:11.992Z,25.13
2023-03-08T23:37:35.538Z,24.47
2023-03-08T23:39:59.144Z,26.17
2023-03-08T23:42:22.677Z,26.83
2023-03-08T23:44:46.254Z,23.13
2023-03-08T23:47:09.951Z,30.93
2023-03-08T23:49:36.113Z,27.13
2023-03-08T23:51:59.831Z,24.83
2023-03-08T23:54:23.458Z,27.70
2023-03-08T23:56:47.056Z,30.17
2023-03-08T23:59:16.857Z,25.83
